createdAt,value
2018-05-23T00:00:37.598Z,0
2018-05-23T00:01:38.137Z,0
2018-05-23T00:02:38.375Z,0
2018-05-23T00:03:37.569Z,0
2018-05-23T00:04:38.089Z,0
2018-05-23T00:05:38.079Z,0
2018-05-23T00:06:38.325Z,0
2018-05-23T00:07:38.063Z,0
2018-05-23T00:08:38.307Z,0
2018-05-23T00:09:38.298Z,0
2018-05-23T00:10:38.277Z,0
2018-05-23T00:11:38.272Z,0
2018-05-23T00:12:38.033Z,0
2018-05-23T00:13:37.987Z,0
2018-05-23T00:14:38.509Z,0
2018-05-23T00:15:37.960Z,0
2018-05-23T00:16:37.685Z,0
2018-05-23T00:17:37.939Z,0
2018-05-23T00:18:38.194Z,0
2018-05-23T00:19:37.655Z,0
2018-05-23T00:20:38.177Z,0
2018-05-23T00:21:37.898Z,0
2018-05-23T00:22:37.896Z,0
2018-05-23T00:23:38.410Z,0
2018-05-23T00:24:38.324Z,0
2018-05-23T00:25:37.845Z,0
2018-05-23T00:26:37.578Z,0
2018-05-23T00:27:38.101Z,0
2018-05-23T00:28:38.350Z,0
2018-05-23T00:29:37.820Z,0
2018-05-23T00:30:37.790Z,0
2018-05-23T00:31:37.783Z,0
2018-05-23T00:32:38.039Z,0
2018-05-23T00:33:38.019Z,0
2018-05-23T00:34:38.016Z,0
2018-05-23T00:35:38.275Z,0
2018-05-23T00:36:37.733Z,0
2018-05-23T00:37:37.987Z,0
2018-05-23T00:38:37.437Z,0
2018-05-23T00:39:37.427Z,0
2018-05-23T00:40:37.954Z,0
2018-05-23T00:41:37.670Z,0
2018-05-23T00:42:37.663Z,0
2018-05-23T00:43:37.657Z,0
2018-05-23T00:44:37.897Z,0
2018-05-23T00:45:37.903Z,0
2018-05-23T00:46:38.146Z,0
2018-05-23T00:47:37.874Z,0
2018-05-23T00:48:38.124Z,0
2018-05-23T00:49:37.313Z,0
2018-05-23T00:50:37.308Z,0
2018-05-23T00:51:37.560Z,0
2018-05-23T00:52:37.821Z,0
2018-05-23T00:53:38.066Z,0
2018-05-23T00:54:37.518Z,0
2018-05-23T00:55:37.519Z,0
2018-05-23T00:56:37.778Z,0
2018-05-23T00:57:37.762Z,0
2018-05-23T00:58:38.002Z,0
2018-05-23T00:59:37.475Z,0
2018-05-23T01:00:37.450Z,0
2018-05-23T01:01:37.440Z,0
2018-05-23T01:02:37.961Z,0
2018-05-23T01:03:37.947Z,0
2018-05-23T01:04:37.423Z,0
2018-05-23T01:05:37.667Z,0
2018-05-23T01:06:37.134Z,0
2018-05-23T01:07:37.916Z,0
2018-05-23T01:08:37.637Z,0
2018-05-23T01:09:37.885Z,0
2018-05-23T01:10:37.874Z,0
2018-05-23T01:11:37.633Z,0
2018-05-23T01:12:37.584Z,0
2018-05-23T01:13:37.314Z,0
2018-05-23T01:14:37.043Z,0
2018-05-23T01:15:37.553Z,0
2018-05-23T01:16:37.289Z,0
2018-05-23T01:17:37.523Z,0
2018-05-23T01:18:37.258Z,0
2018-05-23T01:19:37.509Z,0
2018-05-23T01:20:37.490Z,0
2018-05-23T01:21:36.955Z,0
2018-05-23T01:22:37.477Z,0
2018-05-23T01:23:37.194Z,0
2018-05-23T01:24:37.718Z,0
2018-05-23T01:25:36.916Z,0
2018-05-23T01:26:37.155Z,0
2018-05-23T01:27:37.158Z,0
2018-05-23T01:28:37.151Z,0
2018-05-23T01:29:37.402Z,0
2018-05-23T01:30:37.658Z,0
2018-05-23T01:31:37.389Z,0
2018-05-23T01:32:37.103Z,0
2018-05-23T01:33:37.099Z,0
2018-05-23T01:34:37.355Z,0
2018-05-23T01:35:37.596Z,0
2018-05-23T01:36:36.798Z,0
2018-05-23T01:37:37.046Z,0
2018-05-23T01:38:37.032Z,0
2018-05-23T01:39:37.285Z,0
2018-05-23T01:40:37.008Z,0
2018-05-23T01:41:37.268Z,0
2018-05-23T01:42:36.723Z,0
2018-05-23T01:43:36.701Z,0
2018-05-23T01:44:36.693Z,0
2018-05-23T01:45:37.502Z,0
2018-05-23T01:46:37.463Z,0
2018-05-23T01:47:37.195Z,0
2018-05-23T01:48:36.915Z,0
2018-05-23T01:49:36.907Z,0
2018-05-23T01:50:37.422Z,0
2018-05-23T01:51:37.155Z,0
2018-05-23T01:52:37.397Z,0
2018-05-23T01:53:37.384Z,0
2018-05-23T01:54:36.583Z,0
2018-05-23T01:55:37.369Z,0
2018-05-23T01:56:37.094Z,0
2018-05-23T01:57:37.089Z,0
2018-05-23T01:58:36.814Z,0
2018-05-23T01:59:36.783Z,0
2018-05-23T02:00:37.040Z,0
2018-05-23T02:01:36.791Z,0
2018-05-23T02:02:36.487Z,0
2018-05-23T02:03:36.486Z,0
2018-05-23T02:04:37.216Z,0
2018-05-23T02:05:36.733Z,0
2018-05-23T02:06:36.710Z,0
2018-05-23T02:07:36.964Z,0
2018-05-23T02:08:36.950Z,0
2018-05-23T02:09:36.946Z,0
2018-05-23T02:10:37.194Z,0
2018-05-23T02:11:36.653Z,0
2018-05-23T02:12:36.950Z,0
2018-05-23T02:13:36.673Z,0
2018-05-23T02:14:36.898Z,0
2018-05-23T02:15:36.609Z,0
2018-05-23T02:16:36.593Z,0
2018-05-23T02:17:36.309Z,0
2018-05-23T02:18:36.837Z,0
2018-05-23T02:19:36.301Z,0
2018-05-23T02:20:36.806Z,0
2018-05-23T02:21:36.530Z,0
2018-05-23T02:22:36.533Z,0
2018-05-23T02:23:36.529Z,0
2018-05-23T02:24:36.969Z,0
2018-05-23T02:25:36.489Z,0
2018-05-23T02:26:36.752Z,0
2018-05-23T02:27:36.727Z,0
2018-05-23T02:28:36.200Z,0
2018-05-23T02:29:36.701Z,0
2018-05-23T02:30:36.977Z,0
2018-05-23T02:31:36.695Z,0
2018-05-23T02:32:37.145Z,0
2018-05-23T02:33:36.415Z,0
2018-05-23T02:34:36.409Z,0
2018-05-23T02:35:36.924Z,0
2018-05-23T02:36:36.898Z,0
2018-05-23T02:37:36.362Z,0
2018-05-23T02:38:36.602Z,0
2018-05-23T02:39:36.596Z,0
2018-05-23T02:40:36.317Z,0
2018-05-23T02:41:36.585Z,0
2018-05-23T02:42:36.822Z,0
2018-05-23T02:43:36.810Z,0
2018-05-23T02:44:36.545Z,0
2018-05-23T02:45:36.258Z,0
2018-05-23T02:46:36.260Z,0
2018-05-23T02:47:36.766Z,0
2018-05-23T02:48:36.512Z,0
2018-05-23T02:49:36.477Z,0
2018-05-23T02:50:36.216Z,0
2018-05-23T02:51:36.477Z,0
2018-05-23T02:52:35.926Z,0
2018-05-23T02:53:35.635Z,0
2018-05-23T02:54:36.679Z,0
2018-05-23T02:55:36.419Z,0
2018-05-23T02:56:36.127Z,0
2018-05-23T02:57:36.675Z,0
2018-05-23T02:58:36.128Z,0
2018-05-23T02:59:36.102Z,0
2018-05-23T03:00:35.828Z,0
2018-05-23T03:01:36.339Z,0
2018-05-23T03:02:36.067Z,0
2018-05-23T03:03:36.647Z,0
2018-05-23T03:04:36.314Z,0
2018-05-23T03:05:36.318Z,0
2018-05-23T03:06:36.275Z,0
2018-05-23T03:07:36.275Z,0
2018-05-23T03:08:35.984Z,0
2018-05-23T03:09:35.997Z,0
2018-05-23T03:10:35.965Z,0
2018-05-23T03:11:36.229Z,0
2018-05-23T03:12:36.484Z,0
2018-05-23T03:13:36.473Z,0
2018-05-23T03:14:36.416Z,0
2018-05-23T03:15:36.439Z,0
2018-05-23T03:16:36.184Z,0
2018-05-23T03:17:36.153Z,0
2018-05-23T03:18:35.884Z,0
2018-05-23T03:19:36.130Z,0
2018-05-23T03:20:35.858Z,0
2018-05-23T03:21:35.856Z,0
2018-05-23T03:22:36.367Z,0
2018-05-23T03:23:36.093Z,0
2018-05-23T03:24:35.812Z,0
2018-05-23T03:25:36.064Z,0
2018-05-23T03:26:35.775Z,0
2018-05-23T03:27:36.296Z,0
2018-05-23T03:28:35.758Z,0
2018-05-23T03:29:36.015Z,0
2018-05-23T03:30:36.007Z,0
2018-05-23T03:31:35.741Z,0
2018-05-23T03:32:35.983Z,0
2018-05-23T03:33:35.973Z,0
2018-05-23T03:34:35.954Z,0
2018-05-23T03:35:35.685Z,0
2018-05-23T03:36:35.664Z,0
2018-05-23T03:37:35.923Z,0
2018-05-23T03:38:35.918Z,0
2018-05-23T03:39:35.906Z,0
2018-05-23T03:40:35.625Z,0
2018-05-23T03:41:35.078Z,0
2018-05-23T03:42:35.864Z,0
2018-05-23T03:43:35.859Z,0
2018-05-23T03:44:35.569Z,0
2018-05-23T03:45:35.310Z,0
2018-05-23T03:46:35.560Z,0
2018-05-23T03:47:36.066Z,0
2018-05-23T03:48:35.788Z,0
2018-05-23T03:49:35.781Z,0
2018-05-23T03:50:35.503Z,0
2018-05-23T03:51:35.423Z,0
2018-05-23T03:52:35.740Z,0
2018-05-23T03:53:35.733Z,0
2018-05-23T03:54:35.746Z,0
2018-05-23T03:55:35.825Z,0
2018-05-23T03:56:35.697Z,0
2018-05-23T03:57:35.422Z,0
2018-05-23T03:58:35.408Z,0
2018-05-23T03:59:35.389Z,0
2018-05-23T04:00:34.850Z,0
2018-05-23T04:01:35.653Z,0
2018-05-23T04:02:35.381Z,0
2018-05-23T04:03:35.617Z,0
2018-05-23T04:04:35.337Z,5
2018-05-23T04:05:35.599Z,5
2018-05-23T04:06:35.581Z,5
2018-05-23T04:07:35.310Z,5
2018-05-23T04:08:35.290Z,5
2018-05-23T04:09:35.060Z,5
2018-05-23T04:10:35.527Z,5
2018-05-23T04:11:35.788Z,5
2018-05-23T04:12:35.244Z,5
2018-05-23T04:13:35.490Z,5
2018-05-23T04:14:35.484Z,5
2018-05-23T04:15:35.056Z,5
2018-05-23T04:16:35.194Z,5
2018-05-23T04:17:35.454Z,5
2018-05-23T04:18:35.168Z,5
2018-05-23T04:19:34.894Z,5
2018-05-23T04:20:35.409Z,5
2018-05-23T04:21:35.144Z,5
2018-05-23T04:22:35.651Z,5
2018-05-23T04:23:34.852Z,5
2018-05-23T04:24:35.307Z,5
2018-05-23T04:25:35.626Z,10
2018-05-23T04:26:35.355Z,10
2018-05-23T04:27:35.346Z,10
2018-05-23T04:28:35.052Z,10
2018-05-23T04:29:34.777Z,10
2018-05-23T04:30:35.032Z,10
2018-05-23T04:31:35.283Z,10
2018-05-23T04:32:34.940Z,10
2018-05-23T04:33:34.758Z,10
2018-05-23T04:34:34.985Z,10
2018-05-23T04:35:35.255Z,15
2018-05-23T04:36:34.707Z,15
2018-05-23T04:37:35.214Z,15
2018-05-23T04:38:35.200Z,15
2018-05-23T04:39:35.678Z,15
2018-05-23T04:40:35.467Z,20
2018-05-23T04:41:34.637Z,20
2018-05-23T04:42:34.911Z,20
2018-05-23T04:43:35.414Z,20
2018-05-23T04:44:35.407Z,20
2018-05-23T04:45:35.132Z,20
2018-05-23T04:46:34.847Z,25
2018-05-23T04:47:34.848Z,25
2018-05-23T04:48:34.832Z,25
2018-05-23T04:49:34.867Z,25
2018-05-23T04:50:35.061Z,25
2018-05-23T04:51:34.799Z,30
2018-05-23T04:52:35.311Z,30
2018-05-23T04:53:35.117Z,30
2018-05-23T04:54:34.750Z,35
2018-05-23T04:55:34.741Z,35
2018-05-23T04:56:34.995Z,35
2018-05-23T04:57:34.987Z,35
2018-05-23T04:58:34.719Z,35
2018-05-23T04:59:34.696Z,35
2018-05-23T05:00:34.956Z,35
2018-05-23T05:01:34.404Z,35
2018-05-23T05:02:35.131Z,35
2018-05-23T05:03:34.390Z,35
2018-05-23T05:04:34.648Z,35
2018-05-23T05:05:35.167Z,40
2018-05-23T05:06:34.619Z,40
2018-05-23T05:07:35.143Z,40
2018-05-23T05:08:34.862Z,45
2018-05-23T05:09:34.316Z,45
2018-05-23T05:10:34.582Z,45
2018-05-23T05:11:34.829Z,45
2018-05-23T05:12:34.560Z,45
2018-05-23T05:13:34.816Z,50
2018-05-23T05:14:34.595Z,50
2018-05-23T05:15:34.508Z,50
2018-05-23T05:16:34.510Z,50
2018-05-23T05:17:34.761Z,50
2018-05-23T05:18:34.481Z,50
2018-05-23T05:19:34.891Z,50
2018-05-23T05:20:34.184Z,50
2018-05-23T05:21:34.973Z,50
2018-05-23T05:22:34.700Z,50
2018-05-23T05:23:34.703Z,50
2018-05-23T05:24:34.417Z,50
2018-05-23T05:25:34.672Z,50
2018-05-23T05:26:34.662Z,50
2018-05-23T05:27:33.853Z,50
2018-05-23T05:28:33.844Z,50
2018-05-23T05:29:34.433Z,50
2018-05-23T05:30:34.631Z,55
2018-05-23T05:31:34.597Z,55
2018-05-23T05:32:34.591Z,55
2018-05-23T05:33:34.576Z,60
2018-05-23T05:34:34.304Z,60
2018-05-23T05:35:34.562Z,60
2018-05-23T05:36:34.817Z,60
2018-05-23T05:37:34.804Z,65
2018-05-23T05:38:34.516Z,65
2018-05-23T05:39:34.515Z,70
2018-05-23T05:40:34.596Z,65
2018-05-23T05:41:34.769Z,65
2018-05-23T05:42:34.492Z,60
2018-05-23T05:43:33.942Z,60
2018-05-23T05:44:34.208Z,60
2018-05-23T05:45:34.208Z,60
2018-05-23T05:46:34.173Z,60
2018-05-23T05:47:34.435Z,60
2018-05-23T05:48:34.413Z,65
2018-05-23T05:49:34.426Z,65
2018-05-23T05:50:34.684Z,65
2018-05-23T05:51:34.112Z,65
2018-05-23T05:52:34.630Z,70
2018-05-23T05:53:34.090Z,70
2018-05-23T05:54:34.092Z,70
2018-05-23T05:55:34.596Z,70
2018-05-23T05:56:34.327Z,75
2018-05-23T05:57:33.793Z,75
2018-05-23T05:58:34.576Z,80
2018-05-23T05:59:34.042Z,80
2018-05-23T06:00:33.754Z,85
2018-05-23T06:01:34.012Z,80
2018-05-23T06:02:34.000Z,85
2018-05-23T06:03:34.266Z,85
2018-05-23T06:04:34.246Z,85
2018-05-23T06:05:33.967Z,90
2018-05-23T06:06:33.957Z,90
2018-05-23T06:07:34.224Z,90
2018-05-23T06:08:34.201Z,90
2018-05-23T06:09:33.993Z,95
2018-05-23T06:10:33.908Z,90
2018-05-23T06:11:33.900Z,90
2018-05-23T06:12:33.905Z,95
2018-05-23T06:13:33.880Z,95
2018-05-23T06:14:34.439Z,95
2018-05-23T06:15:33.857Z,100
2018-05-23T06:16:34.127Z,100
2018-05-23T06:17:33.849Z,100
2018-05-23T06:18:33.832Z,100
2018-05-23T06:19:33.867Z,100
2018-05-23T06:20:33.804Z,100
2018-05-23T06:21:34.331Z,100
2018-05-23T06:22:33.257Z,95
2018-05-23T06:23:33.778Z,95
2018-05-23T06:24:34.241Z,95
2018-05-23T06:25:33.491Z,95
2018-05-23T06:26:33.478Z,95
2018-05-23T06:27:34.009Z,95
2018-05-23T06:28:33.739Z,95
2018-05-23T06:29:33.720Z,95
2018-05-23T06:30:33.594Z,105
2018-05-23T06:31:33.698Z,100
2018-05-23T06:32:33.695Z,100
2018-05-23T06:33:33.686Z,105
2018-05-23T06:34:33.673Z,110
2018-05-23T06:35:33.927Z,110
2018-05-23T06:36:33.652Z,115
2018-05-23T06:37:33.631Z,120
2018-05-23T06:38:33.900Z,125
2018-05-23T06:39:33.622Z,125
2018-05-23T06:40:33.874Z,125
2018-05-23T06:41:33.866Z,130
2018-05-23T06:42:33.851Z,130
2018-05-23T06:43:34.072Z,130
2018-05-23T06:44:33.300Z,135
2018-05-23T06:45:33.560Z,135
2018-05-23T06:46:33.547Z,135
2018-05-23T06:47:33.531Z,135
2018-05-23T06:48:33.266Z,135
2018-05-23T06:49:33.776Z,135
2018-05-23T06:50:33.244Z,140
2018-05-23T06:51:33.503Z,140
2018-05-23T06:52:33.481Z,140
2018-05-23T06:53:32.941Z,145
2018-05-23T06:54:34.001Z,145
2018-05-23T06:55:33.520Z,150
2018-05-23T06:56:33.444Z,150
2018-05-23T06:57:33.701Z,155
2018-05-23T06:58:33.433Z,155
2018-05-23T06:59:33.420Z,160
2018-05-23T07:00:33.150Z,160
2018-05-23T07:01:33.669Z,160
2018-05-23T07:02:33.394Z,165
2018-05-23T07:03:33.964Z,165
2018-05-23T07:04:33.634Z,165
2018-05-23T07:05:33.631Z,160
2018-05-23T07:06:33.353Z,165
2018-05-23T07:07:33.607Z,165
2018-05-23T07:08:33.434Z,170
2018-05-23T07:09:33.333Z,175
2018-05-23T07:10:33.057Z,170
2018-05-23T07:11:33.044Z,175
2018-05-23T07:12:33.040Z,175
2018-05-23T07:13:33.284Z,180
2018-05-23T07:14:33.012Z,185
2018-05-23T07:15:33.012Z,190
2018-05-23T07:16:33.783Z,190
2018-05-23T07:17:33.523Z,190
2018-05-23T07:18:33.522Z,190
2018-05-23T07:19:33.506Z,185
2018-05-23T07:20:33.500Z,180
2018-05-23T07:21:33.212Z,180
2018-05-23T07:22:33.467Z,180
2018-05-23T07:23:33.475Z,180
2018-05-23T07:24:33.453Z,180
2018-05-23T07:25:33.445Z,190
2018-05-23T07:26:32.912Z,220
2018-05-23T07:27:32.903Z,215
2018-05-23T07:28:33.299Z,210
2018-05-23T07:29:33.143Z,195
2018-05-23T07:30:33.400Z,200
2018-05-23T07:31:33.435Z,215
2018-05-23T07:32:33.393Z,210
2018-05-23T07:33:33.385Z,210
2018-05-23T07:34:33.110Z,210
2018-05-23T07:35:33.101Z,205
2018-05-23T07:36:33.365Z,215
2018-05-23T07:37:33.093Z,210
2018-05-23T07:38:33.417Z,215
2018-05-23T07:39:33.063Z,215
2018-05-23T07:40:32.787Z,215
2018-05-23T07:41:33.320Z,215
2018-05-23T07:42:32.784Z,215
2018-05-23T07:43:33.033Z,215
2018-05-23T07:44:33.561Z,215
2018-05-23T07:45:33.041Z,220
2018-05-23T07:46:33.010Z,235
2018-05-23T07:47:33.013Z,235
2018-05-23T07:48:33.475Z,245
2018-05-23T07:49:33.254Z,235
2018-05-23T07:50:33.254Z,290
2018-05-23T07:51:33.240Z,325
2018-05-23T07:52:32.962Z,345
2018-05-23T07:53:33.230Z,350
2018-05-23T07:54:32.957Z,355
2018-05-23T07:55:32.935Z,365
2018-05-23T07:56:33.231Z,370
2018-05-23T07:57:32.937Z,370
2018-05-23T07:58:33.457Z,315
2018-05-23T07:59:32.914Z,265
2018-05-23T08:00:33.432Z,275
2018-05-23T08:01:32.899Z,360
2018-05-23T08:02:32.624Z,305
2018-05-23T08:03:32.884Z,305
2018-05-23T08:04:33.226Z,265
2018-05-23T08:05:33.140Z,240
2018-05-23T08:06:33.393Z,220
2018-05-23T08:07:32.853Z,215
2018-05-23T08:08:33.115Z,205
2018-05-23T08:09:32.841Z,200
2018-05-23T08:10:33.368Z,190
2018-05-23T08:11:32.828Z,190
2018-05-23T08:12:32.825Z,185
2018-05-23T08:13:32.814Z,185
2018-05-23T08:14:33.083Z,185
2018-05-23T08:15:33.071Z,190
2018-05-23T08:16:33.054Z,190
2018-05-23T08:17:33.319Z,195
2018-05-23T08:18:32.780Z,200
2018-05-23T08:19:33.314Z,210
2018-05-23T08:20:32.766Z,225
2018-05-23T08:21:33.028Z,245
2018-05-23T08:22:33.277Z,375
2018-05-23T08:23:32.741Z,425
2018-05-23T08:24:33.803Z,475
2018-05-23T08:25:33.260Z,505
2018-05-23T08:26:32.716Z,375
2018-05-23T08:27:32.976Z,375
2018-05-23T08:28:32.459Z,325
2018-05-23T08:29:32.972Z,290
2018-05-23T08:30:32.427Z,430
2018-05-23T08:31:32.431Z,390
2018-05-23T08:32:32.409Z,405
2018-05-23T08:33:33.212Z,365
2018-05-23T08:34:32.680Z,460
2018-05-23T08:35:32.663Z,480
2018-05-23T08:36:33.083Z,510
2018-05-23T08:37:32.925Z,390
2018-05-23T08:38:32.917Z,365
2018-05-23T08:39:32.379Z,325
2018-05-23T08:40:32.642Z,320
2018-05-23T08:41:32.628Z,310
2018-05-23T08:42:32.911Z,295
2018-05-23T08:43:32.878Z,310
2018-05-23T08:44:32.896Z,310
2018-05-23T08:45:33.136Z,320
2018-05-23T08:46:32.866Z,320
2018-05-23T08:47:32.876Z,330
2018-05-23T08:48:32.586Z,350
2018-05-23T08:49:32.965Z,370
2018-05-23T08:50:33.140Z,375
2018-05-23T08:51:33.100Z,390
2018-05-23T08:52:32.570Z,420
2018-05-23T08:53:32.293Z,415
2018-05-23T08:54:33.090Z,430
2018-05-23T08:55:32.549Z,440
2018-05-23T08:56:32.535Z,450
2018-05-23T08:57:32.527Z,450
2018-05-23T08:58:32.794Z,445
2018-05-23T08:59:32.792Z,450
2018-05-23T09:00:32.790Z,435
2018-05-23T09:01:32.258Z,430
2018-05-23T09:02:32.503Z,395
2018-05-23T09:03:32.760Z,380
2018-05-23T09:04:32.765Z,365
2018-05-23T09:05:32.759Z,365
2018-05-23T09:06:33.023Z,380
2018-05-23T09:07:32.747Z,375
2018-05-23T09:08:32.469Z,380
2018-05-23T09:09:32.207Z,375
2018-05-23T09:10:32.992Z,370
2018-05-23T09:11:32.456Z,360
2018-05-23T09:12:33.392Z,370
2018-05-23T09:13:32.445Z,370
2018-05-23T09:14:32.446Z,375
2018-05-23T09:15:32.175Z,380
2018-05-23T09:16:32.698Z,395
2018-05-23T09:17:32.955Z,420
2018-05-23T09:18:32.953Z,415
2018-05-23T09:19:32.681Z,420
2018-05-23T09:20:32.409Z,395
2018-05-23T09:21:32.142Z,395
2018-05-23T09:22:32.403Z,400
2018-05-23T09:23:32.675Z,395
2018-05-23T09:24:32.377Z,380
2018-05-23T09:25:33.309Z,365
2018-05-23T09:26:32.917Z,345
2018-05-23T09:27:32.638Z,325
2018-05-23T09:28:32.912Z,310
2018-05-23T09:29:32.637Z,290
2018-05-23T09:30:32.358Z,280
2018-05-23T09:31:32.363Z,265
2018-05-23T09:32:32.618Z,260
2018-05-23T09:33:32.082Z,260
2018-05-23T09:34:32.604Z,260
2018-05-23T09:35:32.073Z,260
2018-05-23T09:36:32.599Z,265
2018-05-23T09:37:32.597Z,270
2018-05-23T09:38:32.056Z,275
2018-05-23T09:39:32.844Z,280
2018-05-23T09:40:32.579Z,270
2018-05-23T09:41:32.567Z,260
2018-05-23T09:42:32.567Z,250
2018-05-23T09:43:32.289Z,245
2018-05-23T09:44:32.555Z,240
2018-05-23T09:45:32.390Z,240
2018-05-23T09:46:32.280Z,245
2018-05-23T09:47:32.813Z,250
2018-05-23T09:48:32.807Z,255
2018-05-23T09:49:32.268Z,255
2018-05-23T09:50:32.526Z,255
2018-05-23T09:51:32.522Z,250
2018-05-23T09:52:32.515Z,240
2018-05-23T09:53:32.242Z,235
2018-05-23T09:54:32.239Z,225
2018-05-23T09:55:32.499Z,220
2018-05-23T09:56:32.234Z,210
2018-05-23T09:57:32.491Z,205
2018-05-23T09:58:31.951Z,200
2018-05-23T09:59:32.467Z,190
2018-05-23T10:00:31.679Z,185
2018-05-23T10:01:32.273Z,185
2018-05-23T10:02:31.930Z,185
2018-05-23T10:03:32.205Z,190
2018-05-23T10:04:32.137Z,200
2018-05-23T10:05:32.181Z,210
2018-05-23T10:06:31.902Z,225
2018-05-23T10:07:32.159Z,240
2018-05-23T10:08:31.901Z,250
2018-05-23T10:09:32.159Z,265
2018-05-23T10:10:32.504Z,275
2018-05-23T10:11:32.412Z,290
2018-05-23T10:12:31.875Z,295
2018-05-23T10:13:32.665Z,305
2018-05-23T10:14:32.134Z,340
2018-05-23T10:15:32.664Z,360
2018-05-23T10:16:32.402Z,365
2018-05-23T10:17:32.109Z,385
2018-05-23T10:18:32.367Z,410
2018-05-23T10:19:32.092Z,440
2018-05-23T10:20:31.834Z,465
2018-05-23T10:21:32.100Z,520
2018-05-23T10:22:32.089Z,470
2018-05-23T10:23:32.350Z,480
2018-05-23T10:24:32.070Z,535
2018-05-23T10:25:32.815Z,620
2018-05-23T10:26:32.652Z,750
2018-05-23T10:27:32.326Z,665
2018-05-23T10:28:32.058Z,710
2018-05-23T10:29:31.781Z,615
2018-05-23T10:30:31.778Z,775
2018-05-23T10:31:32.308Z,760
2018-05-23T10:32:32.573Z,750
2018-05-23T10:33:32.147Z,755
2018-05-23T10:34:32.289Z,660
2018-05-23T10:35:32.289Z,570
2018-05-23T10:36:32.273Z,480
2018-05-23T10:37:32.542Z,445
2018-05-23T10:38:32.537Z,415
2018-05-23T10:39:32.020Z,385
2018-05-23T10:40:32.267Z,405
2018-05-23T10:41:31.998Z,455
2018-05-23T10:42:32.256Z,470
2018-05-23T10:43:32.530Z,510
2018-05-23T10:44:31.997Z,490
2018-05-23T10:45:31.993Z,465
2018-05-23T10:46:32.254Z,490
2018-05-23T10:47:32.244Z,535
2018-05-23T10:48:32.269Z,560
2018-05-23T10:49:32.233Z,520
2018-05-23T10:50:32.238Z,460
2018-05-23T10:51:31.965Z,410
2018-05-23T10:52:31.961Z,400
2018-05-23T10:53:31.960Z,405
2018-05-23T10:54:31.692Z,425
2018-05-23T10:55:32.214Z,555
2018-05-23T10:56:32.206Z,660
2018-05-23T10:57:31.938Z,525
2018-05-23T10:58:31.941Z,480
2018-05-23T10:59:31.934Z,450
2018-05-23T11:00:32.197Z,470
2018-05-23T11:01:31.924Z,460
2018-05-23T11:02:31.932Z,450
2018-05-23T11:03:32.459Z,455
2018-05-23T11:04:31.949Z,430
2018-05-23T11:05:31.991Z,460
2018-05-23T11:06:32.178Z,425
2018-05-23T11:07:31.376Z,475
2018-05-23T11:08:31.897Z,490
2018-05-23T11:09:32.214Z,540
2018-05-23T11:10:31.903Z,530
2018-05-23T11:11:32.163Z,490
2018-05-23T11:12:32.424Z,470
2018-05-23T11:13:31.615Z,495
2018-05-23T11:14:31.887Z,490
2018-05-23T11:15:32.262Z,490
2018-05-23T11:16:32.149Z,480
2018-05-23T11:17:32.402Z,475
2018-05-23T11:18:32.426Z,415
2018-05-23T11:19:32.139Z,360
2018-05-23T11:20:31.615Z,335
2018-05-23T11:21:31.590Z,305
2018-05-23T11:22:31.597Z,295
2018-05-23T11:23:31.850Z,275
2018-05-23T11:24:31.841Z,265
2018-05-23T11:25:31.836Z,250
2018-05-23T11:26:31.849Z,240
2018-05-23T11:27:32.370Z,230
2018-05-23T11:28:32.094Z,225
2018-05-23T11:29:32.352Z,220
2018-05-23T11:30:32.099Z,225
2018-05-23T11:31:32.355Z,230
2018-05-23T11:32:31.556Z,235
2018-05-23T11:33:32.557Z,245
2018-05-23T11:34:31.807Z,255
2018-05-23T11:35:31.793Z,255
2018-05-23T11:36:32.048Z,255
2018-05-23T11:37:32.052Z,255
2018-05-23T11:38:32.071Z,255
2018-05-23T11:39:32.313Z,255
2018-05-23T11:40:31.770Z,260
2018-05-23T11:41:32.036Z,245
2018-05-23T11:42:31.770Z,245
2018-05-23T11:43:32.292Z,235
2018-05-23T11:44:32.022Z,225
2018-05-23T11:45:32.018Z,220
2018-05-23T11:46:31.820Z,215
2018-05-23T11:47:31.758Z,215
2018-05-23T11:48:32.006Z,220
2018-05-23T11:49:32.013Z,220
2018-05-23T11:50:31.730Z,225
2018-05-23T11:51:31.725Z,230
2018-05-23T11:52:31.721Z,230
2018-05-23T11:53:31.979Z,235
2018-05-23T11:54:32.079Z,240
2018-05-23T11:55:32.237Z,245
2018-05-23T11:56:32.234Z,245
2018-05-23T11:57:31.689Z,250
2018-05-23T11:58:31.958Z,250
2018-05-23T11:59:31.959Z,250
2018-05-23T12:00:31.957Z,250
2018-05-23T12:01:32.217Z,255
2018-05-23T12:02:32.212Z,250
2018-05-23T12:03:31.942Z,245
2018-05-23T12:04:31.681Z,245
2018-05-23T12:05:31.923Z,245
2018-05-23T12:06:31.933Z,245
2018-05-23T12:07:32.182Z,245
2018-05-23T12:08:31.637Z,250
2018-05-23T12:09:31.905Z,250
2018-05-23T12:10:32.688Z,255
2018-05-23T12:11:31.886Z,260
2018-05-23T12:12:31.626Z,275
2018-05-23T12:13:32.150Z,290
2018-05-23T12:14:31.612Z,305
2018-05-23T12:15:31.863Z,320
2018-05-23T12:16:32.132Z,320
2018-05-23T12:17:31.590Z,320
2018-05-23T12:18:31.849Z,315
2018-05-23T12:19:31.585Z,310
2018-05-23T12:20:32.116Z,310
2018-05-23T12:21:31.562Z,305
2018-05-23T12:22:31.896Z,310
2018-05-23T12:23:31.569Z,325
2018-05-23T12:24:31.575Z,330
2018-05-23T12:25:32.016Z,335
2018-05-23T12:26:31.326Z,340
2018-05-23T12:27:31.821Z,345
2018-05-23T12:28:31.805Z,355
2018-05-23T12:29:31.801Z,360
2018-05-23T12:30:31.257Z,370
2018-05-23T12:31:32.061Z,360
2018-05-23T12:32:31.784Z,350
2018-05-23T12:33:31.806Z,355
2018-05-23T12:34:32.039Z,355
2018-05-23T12:35:31.768Z,365
2018-05-23T12:36:31.764Z,360
2018-05-23T12:37:31.493Z,360
2018-05-23T12:38:31.753Z,370
2018-05-23T12:39:32.026Z,375
2018-05-23T12:40:31.752Z,380
2018-05-23T12:41:31.472Z,390
2018-05-23T12:42:31.469Z,405
2018-05-23T12:43:32.013Z,415
2018-05-23T12:44:31.983Z,425
2018-05-23T12:45:31.450Z,430
2018-05-23T12:46:31.441Z,445
2018-05-23T12:47:31.722Z,480
2018-05-23T12:48:31.719Z,525
2018-05-23T12:49:31.695Z,560
2018-05-23T12:50:31.697Z,575
2018-05-23T12:51:31.694Z,545
2018-05-23T12:52:31.942Z,505
2018-05-23T12:53:31.424Z,460
2018-05-23T12:54:31.683Z,455
2018-05-23T12:55:31.141Z,460
2018-05-23T12:56:31.937Z,485
2018-05-23T12:57:31.926Z,475
2018-05-23T12:58:31.390Z,490
2018-05-23T12:59:31.396Z,570
2018-05-23T13:00:31.924Z,580
2018-05-23T13:01:31.983Z,555
2018-05-23T13:02:31.645Z,580
2018-05-23T13:03:32.034Z,595
2018-05-23T13:04:31.631Z,615
2018-05-23T13:05:31.639Z,645
2018-05-23T13:06:31.640Z,665
2018-05-23T13:07:31.631Z,665
2018-05-23T13:08:31.367Z,660
2018-05-23T13:09:31.615Z,645
2018-05-23T13:10:31.874Z,615
2018-05-23T13:11:31.607Z,620
2018-05-23T13:12:31.635Z,635
2018-05-23T13:13:31.613Z,630
2018-05-23T13:14:31.801Z,625
2018-05-23T13:15:31.644Z,620
2018-05-23T13:16:31.592Z,585
2018-05-23T13:17:31.420Z,570
2018-05-23T13:18:31.585Z,550
2018-05-23T13:19:31.326Z,515
2018-05-23T13:20:31.593Z,500
2018-05-23T13:21:31.837Z,485
2018-05-23T13:22:31.588Z,475
2018-05-23T13:23:31.573Z,455
2018-05-23T13:24:31.580Z,440
2018-05-23T13:25:31.833Z,430
2018-05-23T13:26:31.858Z,435
2018-05-23T13:27:31.564Z,440
2018-05-23T13:28:31.836Z,450
2018-05-23T13:29:31.562Z,460
2018-05-23T13:30:31.017Z,475
2018-05-23T13:31:31.551Z,485
2018-05-23T13:32:31.549Z,480
2018-05-23T13:33:31.013Z,460
2018-05-23T13:34:31.547Z,470
2018-05-23T13:35:30.998Z,485
2018-05-23T13:36:31.001Z,495
2018-05-23T13:37:31.540Z,510
2018-05-23T13:38:31.530Z,510
2018-05-23T13:39:30.990Z,535
2018-05-23T13:40:31.518Z,540
2018-05-23T13:41:31.796Z,540
2018-05-23T13:42:31.787Z,525
2018-05-23T13:43:31.244Z,545
2018-05-23T13:44:31.510Z,565
2018-05-23T13:45:31.504Z,570
2018-05-23T13:46:31.234Z,595
2018-05-23T13:47:31.242Z,615
2018-05-23T13:48:31.225Z,650
2018-05-23T13:49:31.228Z,670
2018-05-23T13:50:31.749Z,685
2018-05-23T13:51:31.480Z,685
2018-05-23T13:52:31.754Z,695
2018-05-23T13:53:31.483Z,720
2018-05-23T13:54:31.758Z,710
2018-05-23T13:55:31.204Z,685
2018-05-23T13:56:31.534Z,705
2018-05-23T13:57:30.944Z,725
2018-05-23T13:58:31.483Z,730
2018-05-23T13:59:31.220Z,765
2018-05-23T14:00:31.019Z,800
2018-05-23T14:01:30.668Z,910
2018-05-23T14:02:31.519Z,940
2018-05-23T14:03:31.465Z,945
2018-05-23T14:04:31.187Z,940
2018-05-23T14:05:30.922Z,910
2018-05-23T14:06:31.457Z,945
2018-05-23T14:07:31.189Z,980
2018-05-23T14:08:31.454Z,995